Time;durP1;ratioP1;P1;durP2;ratioP2;P2;SDS_P1;SDS_P2;PMS_P1;PMS_P2;Temp;Humidity;BMP_temperature;BMP_pressure;BME280_temperature;BME280_humidity;BME280_pressure;Samples;Min_cycle;Max_cycle;Signal;HPM_P1;HPM_P2
2023/07/25 00:02:00;;;;;;;3.37;2.10;;;16.40;99.90;;;;;;5038932;28;20459;-76
2023/07/25 00:04:27;;;;;;;2.73;2.03;;;16.40;99.90;;;;;;5029652;28;20463;-76
2023/07/25 00:06:54;;;;;;;2.27;2.07;;;16.40;99.90;;;;;;5030004;28;20490;-76
2023/07/25 00:09:20;;;;;;;2.43;2.00;;;16.40;99.90;;;;;;5029730;28;20486;-76
2023/07/25 00:11:47;;;;;;;2.43;2.10;;;16.40;99.90;;;;;;5030085;28;20475;-76
2023/07/25 00:14:14;;;;;;;3.33;2.33;;;16.40;99.90;;;;;;5030084;28;20462;-76
2023/07/25 00:16:40;;;;;;;3.03;2.30;;;16.40;99.90;;;;;;5029731;28;20460;-76
2023/07/25 00:19:08;;;;;;;2.93;2.53;;;16.40;99.90;;;;;;5029877;28;20483;-76
2023/07/25 00:21:35;;;;;;;2.30;2.07;;;16.40;99.90;;;;;;5029703;28;20461;-76
2023/07/25 00:24:02;;;;;;;2.77;2.20;;;16.40;99.90;;;;;;5029934;28;20483;-76
2023/07/25 00:26:29;;;;;;;2.37;2.17;;;16.40;99.90;;;;;;5029232;28;20467;-76
2023/07/25 00:28:55;;;;;;;2.40;1.93;;;16.40;99.90;;;;;;5029911;28;20488;-76
2023/07/25 00:31:22;;;;;;;2.53;2.13;;;16.40;99.90;;;;;;5029683;28;20472;-76
2023/07/25 00:33:49;;;;;;;2.30;1.90;;;16.40;99.90;;;;;;5032797;28;20846;-76
2023/07/25 00:36:17;;;;;;;2.77;2.47;;;16.40;99.90;;;;;;5033163;28;20456;-76
2023/07/25 00:38:43;;;;;;;3.27;2.40;;;16.40;99.90;;;;;;5033311;28;20483;-76
2023/07/25 00:41:10;;;;;;;2.47;2.20;;;16.40;99.90;;;;;;5033402;28;20462;-76
2023/07/25 00:43:37;;;;;;;2.80;2.50;;;16.40;99.90;;;;;;5035649;28;20980;-76
2023/07/25 00:46:04;;;;;;;3.10;2.67;;;16.40;99.90;;;;;;5052446;28;20482;-76
2023/07/25 00:48:32;;;;;;;2.97;2.17;;;16.40;99.90;;;;;;5053387;28;20478;-76
2023/07/25 00:50:59;;;;;;;3.03;2.10;;;16.40;99.90;;;;;;5053365;28;20483;-76
2023/07/25 00:53:28;;;;;;;2.30;2.00;;;16.30;99.90;;;;;;5052331;28;20477;-76
2023/07/25 00:55:55;;;;;;;3.20;2.50;;;16.30;99.90;;;;;;5052681;28;20465;-76
2023/07/25 00:58:22;;;;;;;2.70;2.10;;;16.30;99.90;;;;;;5052810;28;20496;-76
2023/07/25 01:00:49;;;;;;;3.10;2.10;;;16.30;99.90;;;;;;5052900;28;20462;-76
2023/07/25 01:03:16;;;;;;;2.70;2.20;;;16.30;99.90;;;;;;5052714;28;20471;-76
2023/07/25 01:05:45;;;;;;;2.10;1.90;;;16.30;99.90;;;;;;5052128;28;20458;-76
2023/07/25 01:08:11;;;;;;;2.60;2.40;;;16.20;99.90;;;;;;5052656;28;20474;-76
2023/07/25 01:10:39;;;;;;;3.40;2.23;;;16.30;99.90;;;;;;5052324;28;20508;-76
2023/07/25 01:13:06;;;;;;;2.97;1.80;;;16.20;99.90;;;;;;5052743;28;20453;-76
2023/07/25 01:15:35;;;;;;;2.63;2.30;;;16.20;99.90;;;;;;5052195;28;20468;-76
2023/07/25 01:18:02;;;;;;;2.70;2.03;;;16.10;99.90;;;;;;5052258;28;20481;-76
2023/07/25 01:20:29;;;;;;;4.40;1.93;;;16.10;99.90;;;;;;5035386;28;20470;-76
2023/07/25 01:22:57;;;;;;;4.60;2.37;;;16.00;99.90;;;;;;5037363;28;20463;-75
2023/07/25 01:25:26;;;;;;;3.03;2.17;;;16.00;99.90;;;;;;5053494;28;20463;-76
2023/07/25 01:27:52;;;;;;;3.80;2.03;;;16.00;99.90;;;;;;5044418;28;20489;-76
2023/07/25 01:30:19;;;;;;;2.37;2.17;;;15.90;99.90;;;;;;5044102;28;20480;-77
2023/07/25 01:32:46;;;;;;;3.10;2.27;;;15.90;99.90;;;;;;5041166;28;20468;-76
2023/07/25 01:35:13;;;;;;;2.20;1.97;;;15.90;99.90;;;;;;5032308;28;20476;-76
2023/07/25 01:37:39;;;;;;;2.70;2.20;;;15.80;99.90;;;;;;5031982;28;20513;-76
2023/07/25 01:40:07;;;;;;;3.63;2.60;;;15.80;99.90;;;;;;5032241;28;20474;-76
2023/07/25 01:42:35;;;;;;;2.83;2.00;;;15.80;99.90;;;;;;5032248;28;20487;-76
2023/07/25 01:45:03;;;;;;;2.50;1.73;;;15.80;99.90;;;;;;5030753;28;20482;-76
2023/07/25 01:47:29;;;;;;;3.10;2.40;;;15.80;99.90;;;;;;5031623;28;21025;-76
2023/07/25 01:49:56;;;;;;;2.30;2.10;;;15.80;99.90;;;;;;5032116;28;20478;-76
2023/07/25 01:52:23;;;;;;;3.60;2.07;;;15.80;99.90;;;;;;5032136;28;20467;-76
2023/07/25 01:54:50;;;;;;;2.27;2.07;;;15.80;99.90;;;;;;5031703;28;20470;-76
2023/07/25 01:57:17;;;;;;;2.40;2.20;;;15.80;99.90;;;;;;5031590;28;20486;-76
2023/07/25 01:59:45;;;;;;;2.47;1.93;;;15.80;99.90;;;;;;5034000;28;20461;-76
2023/07/25 02:02:12;;;;;;;3.17;2.27;;;15.80;99.90;;;;;;5051724;28;20466;-76
2023/07/25 02:04:38;;;;;;;7.93;2.40;;;15.80;99.90;;;;;;5051500;28;20829;-76
2023/07/25 02:07:05;;;;;;;2.20;2.00;;;15.80;99.90;;;;;;5052710;28;20462;-76
2023/07/25 02:09:32;;;;;;;2.83;1.93;;;15.80;99.90;;;;;;5051456;28;20599;-76
2023/07/25 02:11:59;;;;;;;2.23;1.73;;;15.70;99.90;;;;;;5047793;28;20465;-76
2023/07/25 02:14:26;;;;;;;3.23;2.50;;;15.70;99.90;;;;;;5031583;28;20476;-76
2023/07/25 02:16:54;;;;;;;2.63;2.23;;;15.70;99.90;;;;;;5031188;28;20466;-76
2023/07/25 02:19:20;;;;;;;2.53;2.33;;;15.70;99.90;;;;;;5031225;28;20474;-76
2023/07/25 02:21:47;;;;;;;3.33;2.60;;;15.70;99.90;;;;;;5031660;28;20467;-76
2023/07/25 02:24:14;;;;;;;3.50;2.43;;;15.70;99.90;;;;;;5031486;28;20466;-76
2023/07/25 02:26:41;;;;;;;3.63;1.93;;;15.60;99.90;;;;;;5031266;28;20461;-76
2023/07/25 02:29:07;;;;;;;2.57;2.20;;;15.60;99.90;;;;;;5031422;28;20490;-76
2023/07/25 02:31:34;;;;;;;2.50;2.10;;;15.50;99.90;;;;;;5040034;28;20488;-76
2023/07/25 02:34:02;;;;;;;1.60;1.50;;;15.50;99.90;;;;;;5051300;28;21031;-76
2023/07/25 02:36:29;;;;;;;3.23;2.40;;;15.50;99.90;;;;;;5050882;28;20473;-76
2023/07/25 02:38:56;;;;;;;2.97;2.43;;;15.50;99.90;;;;;;5050756;28;20491;-76
2023/07/25 02:41:22;;;;;;;2.17;1.97;;;15.50;99.90;;;;;;5051104;28;20476;-76
2023/07/25 02:43:49;;;;;;;2.90;2.37;;;15.50;99.90;;;;;;5051357;28;20473;-76
2023/07/25 02:46:16;;;;;;;2.60;1.93;;;15.50;99.90;;;;;;5051094;28;20461;-76
2023/07/25 02:48:42;;;;;;;2.87;2.20;;;15.40;99.90;;;;;;5050950;28;20508;-76
2023/07/25 02:51:10;;;;;;;2.63;2.17;;;15.40;99.90;;;;;;5050860;28;21009;-76
2023/07/25 02:53:37;;;;;;;2.10;1.80;;;15.30;99.90;;;;;;5050756;28;20453;-76
2023/07/25 02:56:04;;;;;;;2.80;2.23;;;15.30;99.90;;;;;;5046108;28;20462;-76
2023/07/25 02:58:31;;;;;;;4.23;2.27;;;15.20;99.90;;;;;;5031861;28;20481;-76
2023/07/25 03:00:58;;;;;;;2.53;2.03;;;15.20;99.90;;;;;;5030999;28;20464;-76
2023/07/25 03:03:24;;;;;;;2.83;2.47;;;15.20;99.90;;;;;;5046742;28;20469;-76
2023/07/25 03:05:51;;;;;;;2.60;2.30;;;15.20;99.90;;;;;;5034095;28;20852;-76
2023/07/25 03:08:19;;;;;;;2.57;2.00;;;15.20;99.90;;;;;;5051056;28;20489;-74
2023/07/25 03:10:46;;;;;;;2.50;2.17;;;15.20;99.90;;;;;;5050607;28;20489;-76
2023/07/25 03:13:12;;;;;;;1.87;1.73;;;15.20;99.90;;;;;;5050579;28;20466;-76
2023/07/25 03:15:39;;;;;;;2.77;2.27;;;15.20;99.90;;;;;;5049964;28;20471;-75
2023/07/25 03:18:07;;;;;;;2.63;2.43;;;15.30;99.90;;;;;;5050422;28;20551;-76
2023/07/25 03:20:33;;;;;;;2.30;2.00;;;15.30;99.90;;;;;;5046606;28;20458;-76
2023/07/25 03:23:00;;;;;;;3.03;2.57;;;15.40;99.90;;;;;;5027467;28;20463;-74
2023/07/25 03:25:28;;;;;;;3.20;2.70;;;15.40;99.90;;;;;;5030286;28;20466;-75
2023/07/25 03:27:55;;;;;;;3.13;2.17;;;15.50;99.90;;;;;;5029275;28;21032;-75
2023/07/25 03:30:21;;;;;;;4.10;2.60;;;15.60;99.90;;;;;;5033100;28;20482;-76
2023/07/25 03:32:48;;;;;;;2.50;2.30;;;15.60;99.90;;;;;;5050001;28;20987;-75
2023/07/25 03:35:15;;;;;;;3.53;2.13;;;15.70;99.90;;;;;;5036713;28;20465;-74
2023/07/25 03:37:41;;;;;;;3.07;2.00;;;15.70;99.90;;;;;;5038604;28;21017;-76
2023/07/25 03:40:09;;;;;;;3.03;2.33;;;15.70;99.90;;;;;;5050218;28;20459;-75
2023/07/25 03:42:37;;;;;;;3.00;2.40;;;15.80;99.90;;;;;;5041933;28;20901;-72
2023/07/25 03:45:04;;;;;;;4.53;2.90;;;15.80;99.90;;;;;;5022114;28;20211;-72
2023/07/25 03:47:30;;;;;;;4.60;2.90;;;15.80;99.90;;;;;;5029299;28;20489;-71
2023/07/25 03:49:57;;;;;;;3.83;3.03;;;15.90;99.90;;;;;;5040728;28;20494;-73
2023/07/25 03:52:24;;;;;;;2.67;2.27;;;15.90;99.90;;;;;;5041504;28;20472;-73
2023/07/25 03:54:51;;;;;;;2.67;2.47;;;15.90;99.90;;;;;;5049542;28;20460;-72
2023/07/25 03:57:17;;;;;;;3.27;2.67;;;15.90;99.90;;;;;;5049283;28;20484;-72
2023/07/25 03:59:45;;;;;;;2.90;2.60;;;16.00;99.90;;;;;;5049820;28;20464;-72
2023/07/25 04:02:12;;;;;;;2.10;1.90;;;16.00;99.90;;;;;;5049908;28;20456;-72
2023/07/25 04:04:39;;;;;;;2.20;2.00;;;16.00;99.90;;;;;;5049901;28;20484;-72
2023/07/25 04:07:06;;;;;;;2.37;2.17;;;16.00;99.90;;;;;;5021594;28;20469;-71
2023/07/25 04:09:32;;;;;;;3.23;2.40;;;16.00;99.90;;;;;;5033842;28;20466;-72
2023/07/25 04:11:59;;;;;;;2.63;2.33;;;16.00;99.90;;;;;;5033916;28;20483;-73
2023/07/25 04:14:26;;;;;;;2.73;2.50;;;16.00;99.90;;;;;;5033837;28;20494;-72
2023/07/25 04:16:54;;;;;;;3.20;2.43;;;15.90;99.90;;;;;;5033470;28;20469;-72
2023/07/25 04:19:20;;;;;;;3.23;2.30;;;15.90;99.90;;;;;;5033616;28;20834;-72
2023/07/25 04:21:47;;;;;;;2.57;2.00;;;15.90;99.90;;;;;;5042816;28;20469;-73
2023/07/25 04:24:14;;;;;;;3.60;2.70;;;16.00;99.90;;;;;;5029981;28;20823;-71
2023/07/25 04:26:40;;;;;;;3.23;2.63;;;16.00;99.90;;;;;;5028775;28;20461;-71
2023/07/25 04:29:07;;;;;;;2.87;2.50;;;16.00;99.90;;;;;;5033223;28;20494;-71
2023/07/25 04:31:34;;;;;;;2.67;1.77;;;16.00;99.90;;;;;;5031789;28;20490;-72
2023/07/25 04:34:02;;;;;;;2.90;2.30;;;15.90;99.90;;;;;;5031543;28;20463;-72
2023/07/25 04:36:29;;;;;;;2.60;2.17;;;15.90;99.90;;;;;;5032069;28;20458;-72
2023/07/25 04:38:56;;;;;;;2.83;2.17;;;16.00;99.90;;;;;;5031134;28;20575;-69
2023/07/25 04:41:23;;;;;;;3.80;2.43;;;16.00;99.90;;;;;;5040958;28;20954;-72
2023/07/25 04:43:50;;;;;;;2.83;2.60;;;16.00;99.90;;;;;;5032469;28;20473;-72
2023/07/25 04:46:16;;;;;;;3.20;2.57;;;16.00;99.90;;;;;;5032890;28;20470;-72
2023/07/25 04:48:43;;;;;;;2.87;2.40;;;16.00;99.90;;;;;;5033432;28;20870;-72
2023/07/25 04:51:11;;;;;;;3.53;2.57;;;16.00;99.90;;;;;;5033217;28;20474;-71
2023/07/25 04:53:38;;;;;;;3.03;2.50;;;16.00;99.90;;;;;;5040744;28;20464;-70
2023/07/25 04:56:05;;;;;;;2.90;2.60;;;16.10;99.90;;;;;;5052560;28;20487;-71
2023/07/25 04:58:32;;;;;;;2.57;2.13;;;16.10;99.90;;;;;;5053084;28;20488;-72
2023/07/25 05:00:59;;;;;;;3.17;2.30;;;16.10;99.90;;;;;;5036691;28;20470;-72
2023/07/25 05:03:25;;;;;;;4.00;2.67;;;16.10;99.90;;;;;;5039201;28;20474;-72
2023/07/25 05:05:53;;;;;;;2.70;2.33;;;16.10;99.90;;;;;;5032501;28;20462;-71
2023/07/25 05:08:21;;;;;;;2.80;2.40;;;16.20;99.90;;;;;;5032666;28;20486;-73
2023/07/25 05:10:50;;;;;;;3.50;1.97;;;16.20;99.90;;;;;;5032673;28;21003;-74
2023/07/25 05:13:17;;;;;;;3.10;2.40;;;16.20;99.90;;;;;;5032791;28;20460;-71
2023/07/25 05:15:44;;;;;;;2.43;2.23;;;16.20;99.90;;;;;;5048588;28;20817;-70
2023/07/25 05:18:11;;;;;;;2.80;2.50;;;16.20;99.90;;;;;;5052096;28;20481;-73
2023/07/25 05:20:37;;;;;;;2.60;2.30;;;16.20;99.90;;;;;;5052561;28;20465;-71
2023/07/25 05:23:06;;;;;;;4.13;2.80;;;16.20;99.90;;;;;;5052331;28;20460;-71
2023/07/25 05:25:34;;;;;;;4.27;2.67;;;16.20;99.90;;;;;;5037983;28;20498;-72
2023/07/25 05:28:00;;;;;;;2.83;2.30;;;16.20;99.90;;;;;;5063894;22;20493;-91
2023/07/25 05:30:27;;;;;;;2.87;2.27;;;16.20;99.90;;;;;;5028260;28;20512;-90
2023/07/25 05:32:54;;;;;;;3.50;2.33;;;16.10;99.90;;;;;;5028073;28;20458;-91
2023/07/25 05:35:21;;;;;;;2.70;2.07;;;16.10;99.90;;;;;;5031249;28;20462;-90
2023/07/25 05:37:47;;;;;;;2.40;2.00;;;16.00;99.90;;;;;;5027703;28;20489;-91
2023/07/25 05:40:14;;;;;;;3.33;2.57;;;16.00;99.90;;;;;;5024186;28;20463;-90
2023/07/25 05:42:42;;;;;;;3.97;2.57;;;16.00;99.90;;;;;;5023807;28;20453;-89
2023/07/25 05:45:09;;;;;;;3.80;2.90;;;16.00;99.90;;;;;;5026820;28;20472;-91
2023/07/25 05:47:35;;;;;;;3.60;2.90;;;16.00;99.90;;;;;;5026127;28;20954;-90
2023/07/25 05:50:02;;;;;;;3.83;2.43;;;16.10;99.90;;;;;;5024482;28;20476;-90
2023/07/25 05:52:29;;;;;;;3.20;2.90;;;16.10;99.90;;;;;;5023358;28;20220;-91
2023/07/25 05:54:55;;;;;;;3.23;2.37;;;16.10;99.90;;;;;;5025139;28;20482;-90
2023/07/25 05:57:22;;;;;;;3.83;2.60;;;16.10;99.90;;;;;;5028903;28;20466;-91
2023/07/25 05:59:50;;;;;;;3.03;2.63;;;16.10;99.90;;;;;;5030850;28;20454;-92
2023/07/25 06:02:17;;;;;;;3.90;3.17;;;16.10;99.90;;;;;;5043644;28;20458;-93
2023/07/25 06:04:46;;;;;;;3.03;2.73;;;16.10;99.90;;;;;;5043371;28;20495;-90
2023/07/25 06:07:13;;;;;;;3.30;2.83;;;16.10;99.90;;;;;;5039457;28;20530;-91
2023/07/25 06:09:39;;;;;;;3.80;2.87;;;16.20;99.90;;;;;;5037723;28;20488;-92
2023/07/25 06:12:17;;;;;;;2.87;2.50;;;16.20;99.90;;;;;;5042356;28;20482;-92
2023/07/25 06:14:47;;;;;;;3.30;2.90;;;16.30;99.90;;;;;;5042317;28;20453;-92
2023/07/25 06:17:15;;;;;;;3.30;2.17;;;16.30;99.90;;;;;;5027099;28;20457;-92
2023/07/25 06:19:42;;;;;;;3.80;3.00;;;16.40;99.90;;;;;;5039444;28;20471;-91
2023/07/25 06:22:09;;;;;;;3.77;3.27;;;16.40;99.90;;;;;;5032823;28;20464;-92
2023/07/25 06:24:36;;;;;;;3.80;2.80;;;16.40;99.90;;;;;;5034516;28;20478;-92
2023/07/25 06:27:02;;;;;;;2.70;2.47;;;16.40;99.90;;;;;;5036508;28;20883;-91
2023/07/25 06:29:29;;;;;;;4.10;2.83;;;16.40;99.90;;;;;;5036510;28;20482;-93
2023/07/25 06:31:56;;;;;;;4.00;2.93;;;16.40;99.90;;;;;;5039534;28;20482;-92
2023/07/25 06:34:24;;;;;;;2.63;2.40;;;16.40;99.90;;;;;;5039078;28;20448;-93
2023/07/25 06:36:54;;;;;;;4.30;3.20;;;16.40;99.90;;;;;;5038284;28;20463;-92
2023/07/25 06:39:20;;;;;;;4.67;2.90;;;16.50;99.90;;;;;;5028553;28;21008;-92
2023/07/25 06:41:47;;;;;;;3.47;2.50;;;16.50;99.90;;;;;;5039256;28;20465;-93
2023/07/25 06:44:15;;;;;;;3.43;2.30;;;16.50;99.90;;;;;;5043758;28;20454;-93
2023/07/25 06:46:41;;;;;;;3.97;2.90;;;16.50;99.90;;;;;;5046189;28;20804;-93
2023/07/25 06:49:08;;;;;;;3.20;2.90;;;16.50;99.90;;;;;;5024681;28;20486;-92
2023/07/25 06:51:36;;;;;;;3.77;2.80;;;16.50;99.90;;;;;;5023860;28;21008;-91
2023/07/25 06:54:03;;;;;;;3.60;2.80;;;16.50;99.90;;;;;;5027211;28;20468;-91
2023/07/25 06:56:30;;;;;;;2.93;2.60;;;16.50;99.90;;;;;;5034189;28;20465;-94
2023/07/25 06:58:56;;;;;;;5.70;3.17;;;16.50;99.90;;;;;;5039363;28;20910;-91
2023/07/25 07:01:27;;;;;;;4.20;2.90;;;16.50;99.90;;;;;;5004883;28;20475;-91
2023/07/25 07:03:54;;;;;;;3.20;2.63;;;16.50;99.90;;;;;;5004502;28;20461;-91
2023/07/25 07:06:21;;;;;;;4.13;3.40;;;16.50;99.90;;;;;;5036752;28;20545;-91
2023/07/25 07:08:49;;;;;;;3.90;2.77;;;16.50;99.90;;;;;;5034635;28;20489;-91
2023/07/25 07:11:15;;;;;;;4.10;2.73;;;16.50;99.90;;;;;;5036239;28;21031;-90
2023/07/25 07:13:42;;;;;;;2.60;2.40;;;16.50;99.90;;;;;;5037486;28;20966;-91
2023/07/25 07:16:09;;;;;;;3.07;2.77;;;16.50;99.90;;;;;;5018199;28;20463;-90
2023/07/25 07:18:36;;;;;;;3.20;2.90;;;16.50;99.90;;;;;;4995112;28;20527;-90
2023/07/25 07:21:03;;;;;;;3.10;2.80;;;16.60;99.90;;;;;;4996715;28;20475;-90
2023/07/25 07:23:29;;;;;;;3.07;2.77;;;16.60;99.90;;;;;;4998069;28;20462;-92
2023/07/25 07:26:09;;;;;;;5.07;2.97;;;16.60;99.90;;;;;;5007560;28;20470;-92
2023/07/25 07:28:35;;;;;;;2.90;2.60;;;16.60;99.90;;;;;;5017470;28;20507;-92
2023/07/25 07:31:02;;;;;;;2.53;2.33;;;16.70;99.90;;;;;;5017182;28;20802;-92
2023/07/25 07:33:30;;;;;;;3.73;2.70;;;16.70;99.90;;;;;;5017391;28;20466;-91
2023/07/25 07:35:57;;;;;;;2.90;2.40;;;16.70;99.90;;;;;;5018706;28;20469;-91
2023/07/25 07:38:24;;;;;;;2.33;2.07;;;16.80;99.90;;;;;;5020826;28;20487;-92
2023/07/25 07:40:50;;;;;;;2.70;2.10;;;16.80;99.90;;;;;;5018737;28;20463;-91
2023/07/25 07:43:18;;;;;;;2.47;2.27;;;16.90;99.90;;;;;;5017404;28;20475;-91
2023/07/25 07:45:45;;;;;;;2.70;2.27;;;17.00;99.90;;;;;;5017776;28;20467;-91
2023/07/25 07:48:12;;;;;;;5.83;2.60;;;17.10;99.90;;;;;;5007808;28;20495;-90
2023/07/25 07:50:39;;;;;;;2.60;2.40;;;17.20;99.90;;;;;;4999053;28;20465;-91
2023/07/25 07:53:06;;;;;;;2.50;2.23;;;17.30;99.90;;;;;;5008048;28;20487;-92
2023/07/25 07:55:33;;;;;;;2.83;2.20;;;17.40;99.90;;;;;;5018595;28;20465;-93
2023/07/25 07:58:02;;;;;;;2.47;2.23;;;17.40;99.90;;;;;;5018203;28;20510;-92
2023/07/25 08:00:35;;;;;;;2.43;1.73;;;17.50;99.90;;;;;;5015407;28;20488;-91
2023/07/25 08:03:01;;;;;;;2.70;1.83;;;17.50;99.90;;;;;;5006589;28;20839;-91
2023/07/25 08:05:28;;;;;;;2.20;1.97;;;17.60;99.90;;;;;;5015345;28;20463;-92
2023/07/25 08:07:55;;;;;;;2.17;1.97;;;17.70;99.90;;;;;;5017332;28;21008;-92
2023/07/25 08:10:24;;;;;;;2.77;2.50;;;17.80;99.90;;;;;;5017890;28;20457;-92
2023/07/25 08:12:51;;;;;;;2.13;1.93;;;17.80;99.90;;;;;;5016376;28;20490;-92
2023/07/25 08:15:18;;;;;;;3.57;2.20;;;17.90;99.90;;;;;;5000999;28;20462;-92
2023/07/25 08:17:46;;;;;;;3.80;2.77;;;18.00;99.90;;;;;;5004245;28;20482;-92
2023/07/25 08:20:13;;;;;;;3.13;2.07;;;18.20;99.90;;;;;;5009695;28;20473;-92
2023/07/25 08:22:40;;;;;;;2.30;2.10;;;18.20;99.90;;;;;;5018046;28;20850;-92
2023/07/25 08:25:08;;;;;;;3.93;2.30;;;18.30;99.90;;;;;;5020941;28;20468;-93
2023/07/25 08:27:36;;;;;;;2.00;1.80;;;18.30;99.90;;;;;;5009539;28;20472;-93
2023/07/25 08:30:04;;;;;;;2.93;2.60;;;18.30;99.90;;;;;;5002960;28;20467;-93
2023/07/25 08:32:32;;;;;;;2.13;1.77;;;18.40;99.90;;;;;;5017435;28;20480;-93
2023/07/25 08:35:03;;;;;;;2.30;2.10;;;18.40;99.90;;;;;;5024590;28;20464;-93
2023/07/25 08:37:29;;;;;;;2.33;2.10;;;18.40;99.90;;;;;;5021129;28;20461;-91
2023/07/25 08:39:56;;;;;;;2.50;2.10;;;18.40;99.90;;;;;;5020427;28;20943;-91
2023/07/25 08:42:25;;;;;;;1.93;1.83;;;18.40;99.90;;;;;;5018963;28;20454;-92
2023/07/25 08:44:53;;;;;;;3.00;2.00;;;18.40;99.90;;;;;;5021803;28;21048;-91
2023/07/25 08:47:25;;;;;;;2.83;1.90;;;18.50;99.90;;;;;;5027700;28;20461;-92
2023/07/25 08:50:00;;;;;;;3.03;1.73;;;18.60;99.90;;;;;;5032596;28;20466;-93
2023/07/25 08:52:36;;;;;;;2.90;2.30;;;18.60;99.90;;;;;;5019665;28;20535;-93
2023/07/25 08:55:46;;;;;;;1.97;1.77;;;18.60;99.90;;;;;;5017785;28;20491;-92
2023/07/25 08:58:26;;;;;;;1.80;1.70;;;18.60;99.90;;;;;;4992305;28;20481;-93
2023/07/25 09:06:54;;;;;;;1.40;1.30;;;18.20;99.90;;;;;;5045621;22;20495;-73
2023/07/25 09:09:23;;;;;;;2.80;1.70;;;18.20;99.90;;;;;;5024180;28;20488;-71
2023/07/25 09:11:51;;;;;;;2.20;1.90;;;18.10;99.90;;;;;;5032507;28;20488;-73
2023/07/25 09:14:18;;;;;;;1.67;1.50;;;17.90;99.90;;;;;;5032560;28;20495;-74
2023/07/25 09:16:45;;;;;;;1.47;1.30;;;17.90;99.90;;;;;;5032152;28;20476;-74
2023/07/25 09:19:12;;;;;;;2.17;1.80;;;17.90;99.90;;;;;;5032304;28;20493;-73
2023/07/25 09:21:50;;;;;;;2.37;2.17;;;17.90;99.90;;;;;;5024435;28;20460;-72
2023/07/25 09:24:16;;;;;;;3.40;1.40;;;18.00;99.90;;;;;;5031907;28;20472;-70
2023/07/25 09:26:50;;;;;;;2.10;1.90;;;18.00;99.90;;;;;;5031543;28;20469;-74
2023/07/25 09:29:17;;;;;;;1.70;1.60;;;18.10;99.90;;;;;;5031373;28;20479;-73
2023/07/25 09:31:45;;;;;;;2.00;1.60;;;18.30;99.90;;;;;;5031762;28;20834;-73
2023/07/25 09:34:17;;;;;;;1.60;1.50;;;18.40;99.90;;;;;;5032266;28;20975;-74
2023/07/25 09:36:46;;;;;;;2.13;1.40;;;18.60;99.90;;;;;;5031573;28;20881;-74
2023/07/25 09:39:13;;;;;;;3.93;1.70;;;18.70;99.90;;;;;;5031686;28;20527;-74
2023/07/25 09:41:40;;;;;;;1.70;1.57;;;18.90;99.90;;;;;;5031571;28;20959;-74
2023/07/25 09:44:08;;;;;;;1.90;1.67;;;19.00;99.90;;;;;;5032099;28;20477;-73
2023/07/25 09:46:35;;;;;;;2.43;1.60;;;19.30;99.90;;;;;;5031180;28;20461;-74
2023/07/25 09:49:02;;;;;;;2.27;2.00;;;19.50;99.90;;;;;;5031562;28;20503;-74
2023/07/25 09:51:29;;;;;;;3.27;1.83;;;19.60;99.90;;;;;;5031563;28;20883;-74
2023/07/25 09:53:56;;;;;;;1.97;1.63;;;19.70;99.90;;;;;;5030992;28;21130;-74
2023/07/25 09:56:24;;;;;;;1.80;1.67;;;19.80;99.90;;;;;;5031211;28;20469;-74
2023/07/25 09:58:52;;;;;;;2.47;1.63;;;20.10;99.90;;;;;;5031444;28;20864;-74
2023/07/25 10:01:20;;;;;;;1.70;1.37;;;20.20;99.90;;;;;;5031668;28;20466;-69
2023/07/25 10:03:47;;;;;;;1.93;1.37;;;20.30;99.90;;;;;;5031594;28;20462;-70
2023/07/25 10:06:15;;;;;;;1.83;1.70;;;20.20;99.90;;;;;;5029577;28;20853;-69
2023/07/25 10:08:43;;;;;;;1.80;1.30;;;20.20;99.90;;;;;;5030977;28;20542;-70
2023/07/25 10:11:11;;;;;;;1.70;1.53;;;20.10;99.90;;;;;;5031547;28;20461;-70
2023/07/25 10:13:38;;;;;;;2.50;1.73;;;20.00;99.90;;;;;;5030958;28;20481;-70
2023/07/25 10:16:06;;;;;;;1.80;1.57;;;20.00;99.90;;;;;;5030601;28;20848;-70
2023/07/25 10:18:35;;;;;;;3.73;1.57;;;20.30;99.90;;;;;;5030409;28;20858;-70
2023/07/25 10:21:02;;;;;;;2.03;1.70;;;20.40;99.90;;;;;;5030899;28;20465;-70
2023/07/25 10:23:34;;;;;;;1.63;1.53;;;20.40;99.90;;;;;;5030537;28;20470;-70
2023/07/25 10:26:11;;;;;;;1.70;1.60;;;20.30;99.90;;;;;;5030802;28;20790;-70
2023/07/25 10:28:37;;;;;;;2.40;1.97;;;20.40;99.90;;;;;;5030276;28;20521;-70
2023/07/25 10:31:07;;;;;;;2.80;1.40;;;20.40;99.90;;;;;;5024021;28;20478;-70
2023/07/25 10:33:38;;;;;;;1.60;1.33;;;20.40;99.90;;;;;;5029342;28;20547;-70
2023/07/25 10:36:06;;;;;;;1.40;1.30;;;20.40;99.90;;;;;;5030478;28;20469;-70
2023/07/25 10:38:35;;;;;;;1.43;1.33;;;20.40;99.90;;;;;;5030113;28;20490;-70
2023/07/25 10:41:10;;;;;;;2.00;1.60;;;20.40;99.90;;;;;;5030650;28;21315;-70
2023/07/25 10:43:55;;;;;;;2.03;1.50;;;20.30;99.90;;;;;;5029780;28;20461;-70
2023/07/25 10:46:23;;;;;;;1.50;1.37;;;20.10;99.90;;;;;;5029530;28;20511;-70
2023/07/25 10:48:53;;;;;;;1.40;1.30;;;19.90;99.90;;;;;;5030190;28;21042;-70
2023/07/25 10:51:21;;;;;;;2.43;1.57;;;19.90;99.90;;;;;;5030223;28;20464;-70
2023/07/25 10:54:07;;;;;;;1.57;1.40;;;19.70;99.90;;;;;;5029900;28;20481;-69
2023/07/25 10:56:34;;;;;;;1.80;1.60;;;19.70;99.90;;;;;;5029251;28;21019;-70
2023/07/25 10:59:08;;;;;;;1.50;1.33;;;19.60;99.90;;;;;;5030100;28;20524;-70
2023/07/25 11:01:44;;;;;;;1.60;1.50;;;19.50;99.90;;;;;;5029755;28;20468;-70
2023/07/25 11:04:29;;;;;;;2.10;1.20;;;19.40;99.90;;;;;;5030951;28;20535;-71
2023/07/25 11:06:58;;;;;;;1.70;1.40;;;19.40;99.90;;;;;;5029988;28;20470;-72
2023/07/25 11:09:26;;;;;;;1.73;1.63;;;19.40;99.90;;;;;;5021866;28;20469;-70
2023/07/25 11:11:55;;;;;;;1.73;1.37;;;19.40;99.90;;;;;;5030429;28;20465;-72
2023/07/25 11:14:23;;;;;;;2.53;2.33;;;19.50;99.90;;;;;;5023810;28;20493;-72
2023/07/25 11:16:52;;;;;;;1.80;1.50;;;19.60;99.90;;;;;;5029687;28;20465;-70
2023/07/25 11:19:21;;;;;;;1.70;1.30;;;19.70;99.90;;;;;;5029410;28;20470;-69
2023/07/25 11:21:49;;;;;;;1.40;1.17;;;20.00;99.90;;;;;;5028446;28;20557;-74
2023/07/25 11:24:19;;;;;;;1.57;1.40;;;20.30;99.90;;;;;;5030192;28;20461;-70
2023/07/25 11:26:46;;;;;;;1.30;1.20;;;20.50;99.90;;;;;;5028636;28;20468;-74
2023/07/25 11:29:13;;;;;;;2.50;1.30;;;20.70;99.90;;;;;;5029813;28;20887;-73
2023/07/25 11:31:47;;;;;;;1.50;1.30;;;20.90;99.90;;;;;;5029097;28;20470;-72
2023/07/25 11:34:15;;;;;;;1.37;1.27;;;21.00;99.90;;;;;;5030686;28;20478;-72
2023/07/25 11:36:43;;;;;;;3.57;1.03;;;21.20;99.90;;;;;;5029965;28;20471;-73
2023/07/25 11:39:13;;;;;;;1.30;1.10;;;21.10;99.90;;;;;;5030768;28;20493;-72
2023/07/25 11:41:40;;;;;;;1.10;1.00;;;21.20;99.90;;;;;;5029959;28;20467;-73
2023/07/25 11:44:10;;;;;;;3.20;1.30;;;21.20;99.90;;;;;;5029983;28;20479;-74
2023/07/25 11:46:39;;;;;;;1.30;1.13;;;21.00;99.90;;;;;;5029140;28;20463;-72
2023/07/25 11:49:06;;;;;;;1.17;1.07;;;20.80;99.90;;;;;;5029730;28;20498;-70
2023/07/25 11:51:33;;;;;;;1.30;1.10;;;20.70;99.90;;;;;;5029431;28;20469;-70
2023/07/25 11:54:00;;;;;;;1.63;1.53;;;20.50;99.90;;;;;;5029105;28;20489;-70
2023/07/25 11:56:28;;;;;;;1.97;1.67;;;20.40;99.90;;;;;;5028459;28;20869;-70
2023/07/25 11:58:55;;;;;;;1.80;1.50;;;20.40;99.90;;;;;;5029317;28;20496;-73
2023/07/25 12:01:27;;;;;;;2.00;1.30;;;20.60;99.90;;;;;;5029366;28;20464;-75
2023/07/25 12:03:54;;;;;;;1.30;1.20;;;20.60;99.90;;;;;;5021621;28;20459;-75
2023/07/25 12:06:27;;;;;;;1.53;1.20;;;20.80;99.90;;;;;;5028866;28;20466;-74
2023/07/25 12:08:54;;;;;;;1.97;1.20;;;20.90;99.90;;;;;;5020914;28;20505;-76
2023/07/25 12:11:21;;;;;;;1.37;1.27;;;21.00;99.90;;;;;;5029434;28;20503;-74
2023/07/25 12:13:50;;;;;;;1.30;1.10;;;21.10;99.90;;;;;;5028805;28;20486;-72
2023/07/25 12:16:32;;;;;;;1.40;1.10;;;20.70;99.90;;;;;;5022012;28;20468;-69
2023/07/25 12:19:00;;;;;;;1.10;0.80;;;20.10;99.90;;;;;;5022029;28;20985;-73
2023/07/25 12:22:16;;;;;;;2.60;0.90;;;19.70;99.90;;;;;;5060823;23;20499;-92
2023/07/25 12:25:03;;;;;;;1.10;0.90;;;19.50;99.90;;;;;;5044979;28;21020;-91
2023/07/25 12:27:58;;;;;;;4.70;1.10;;;19.30;99.90;;;;;;5037113;28;20456;-91
2023/07/25 12:34:22;;;;;;;1.87;0.87;;;19.50;99.90;;;;;;5054968;28;20491;-91
2023/07/25 12:37:00;;;;;;;2.03;1.50;;;19.70;99.90;;;;;;5057371;28;20493;-90
2023/07/25 12:39:52;;;;;;;1.00;0.90;;;19.70;99.90;;;;;;5056712;28;20464;-91
2023/07/25 12:42:46;;;;;;;1.63;1.20;;;19.70;99.90;;;;;;5058312;28;20585;-91
2023/07/25 12:49:14;;;;;;;1.20;1.07;;;19.90;99.90;;;;;;5042491;28;20513;-91
2023/07/25 12:51:41;;;;;;;1.33;1.00;;;20.00;99.90;;;;;;5027211;23;20488;-74
2023/07/25 12:54:08;;;;;;;2.00;1.20;;;20.20;99.90;;;;;;5045966;28;20488;-75
2023/07/25 12:56:34;;;;;;;1.20;1.10;;;20.20;99.90;;;;;;5051888;28;20469;-75
2023/07/25 12:59:01;;;;;;;1.20;1.00;;;20.30;99.90;;;;;;5052373;28;20495;-74
2023/07/25 13:01:28;;;;;;;1.10;1.00;;;20.40;99.90;;;;;;5044535;28;20461;-73
2023/07/25 13:03:56;;;;;;;1.10;1.00;;;20.50;99.90;;;;;;5043996;28;20473;-73
2023/07/25 13:06:22;;;;;;;1.40;1.10;;;20.70;99.90;;;;;;5051907;28;20470;-72
2023/07/25 13:08:49;;;;;;;1.00;0.80;;;21.10;99.90;;;;;;5052012;28;20484;-72